ADDS METAR Data INFO
IDs: Format: Raw Decoded Include TAF

Data at: 1747 UTC 21 Oct 2017

KADF 211717Z AUTO 16007KT 10SM OVC010 24/21 A3004 RMK AO2 CIG 007V012
KADF 211656Z AUTO 16005KT 5SM BR OVC008 22/20 A3005 RMK AO2 SLP178 T02220200
KADF 211556Z AUTO 17004KT 10SM OVC006 21/19 A3005 RMK AO2 SLP177 T02110194
KADF 211456Z AUTO VRB05KT 10SM OVC006 21/19 A3005 RMK AO2 SLP179 T02060189 53002
KADF 211356Z AUTO VRB04KT 10SM OVC006 20/19 A3004 RMK AO2 SLP176 T02000189
KADF 211256Z AUTO VRB03KT 10SM OVC008 18/17 A3004 RMK AO2 SLP174 T01830172
KADF 211231Z AUTO 00000KT 10SM OVC008 18/17 A3004 RMK AO2
KADF 211156Z AUTO 00000KT 10SM OVC012 17/17 A3005 RMK AO2 SLP177 T01720167 10172 20122 53010
KADF 211113Z AUTO 00000KT 10SM OVC014 17/16 A3004 RMK AO2
KADF 211056Z AUTO 00000KT 10SM OVC016 17/16 A3003 RMK AO2 SLP173 T01670161
KADF 211017Z AUTO 00000KT 10SM BKN018 OVC090 16/16 A3003 RMK AO2
KADF 210956Z AUTO 01003KT 10SM OVC090 16/15 A3002 RMK AO2 SLP168 T01560150
KADF 210856Z AUTO 00000KT 10SM FEW027 OVC095 15/14 A3002 RMK AO2 SLP167 T01500144 58009
KADF 210756Z AUTO 00000KT 10SM FEW120 14/13 A3003 RMK AO2 SLP170 T01390133
KADF 210656Z AUTO 00000KT 10SM SCT037 SCT047 13/13 A3003 RMK AO2 SLP173 T01330128
KADF 210556Z AUTO 00000KT 10SM FEW035 13/12 A3004 RMK AO2 SLP176 T01280122 10189 20122 402390072 58002
KADF 210456Z AUTO 00000KT 10SM CLR 13/13 A3004 RMK AO2 SLP177 T01330128
KADF 210356Z AUTO 02003KT 10SM CLR 14/13 A3005 RMK AO2 SLP180 T01390133
KADF 210256Z AUTO 03003KT 9SM CLR 14/13 A3005 RMK AO2 SLP179 T01390133 55003
KADF 210156Z AUTO 00000KT 10SM CLR 14/14 A3004 RMK AO2 SLP176 T01440139
KADF 210056Z AUTO 00000KT 10SM CLR 17/16 A3005 RMK AO2 SLP181 T01670156 TSNO
KADF 202356Z AUTO 00000KT 10SM CLR 19/16 A3006 RMK AO2 SLP182 T01890156 10239 20189 58005
KADF 202256Z AUTO VRB03KT 10SM CLR 22/16 A3007 RMK AO2 SLP186 T02170161
KADF 202156Z AUTO 15006KT 10SM CLR 23/16 A3008 RMK AO2 SLP190 T02330161
KADF 202056Z AUTO VRB04KT 10SM CLR 23/17 A3007 RMK AO2 SLP187 T02330167 58026
KADF 201956Z AUTO VRB05KT 10SM CLR 23/16 A3010 RMK AO2 SLP195 T02330161
KADF 201856Z AUTO 17005KT 10SM BKN042 23/16 A3013 RMK AO2 SLP207 T02280161
KADF 201756Z AUTO VRB03KT 10SM CLR 22/17 A3015 RMK AO2 SLP213 T02220167 10222 20094 58019
KADF 201656Z AUTO VRB04KT 10SM CLR 19/16 A3019 RMK AO2 SLP226 T01940156
KADF 201556Z AUTO 00000KT 10SM FEW010 17/14 A3020 RMK AO2 SLP230 T01720144
KADF 201456Z AUTO 00000KT 10SM BKN042 15/13 A3021 RMK AO2 SLP232 T01500128 51006
KADF 201356Z AUTO 00000KT 10SM CLR 13/12 A3021 RMK AO2 SLP233 T01280117
KADF 201256Z AUTO 00000KT 10SM CLR 10/09 A3019 RMK AO2 SLP229 T01000094
KADF 201156Z AUTO 04003KT 10SM CLR 11/10 A3019 RMK AO2 SLP226 T01060100 10106 20072 53002
KADF 201056Z AUTO 04003KT 10SM CLR 08/08 A3018 RMK AO2 SLP224 T00830078
KADF 200956Z AUTO 00000KT 10SM CLR 08/07 A3018 RMK AO2 SLP223 T00780072
KADF 200856Z AUTO 00000KT 10SM FEW003 08/07 A3018 RMK AO2 SLP223 T00780072 55003
KADF 200848Z AUTO 00000KT 10SM FEW003 08/07 A3018 RMK AO2
KADF 200836Z AUTO 00000KT 2SM BR FEW003 08/07 A3018 RMK AO2 VIS 1/2V5
KADF 200832Z AUTO 00000KT 1SM BR VV003 08/07 A3018 RMK AO2 VIS 1/2V5
KADF 200826Z AUTO 00000KT 1 1/2SM BR CLR 07/07 A3018 RMK AO2 VIS 1/2V5
KADF 200756Z AUTO 00000KT 10SM CLR 08/07 A3017 RMK AO2 SLP221 T00780072
KADF 200656Z AUTO 00000KT 7SM CLR 09/08 A3019 RMK AO2 SLP226 T00890083